Time;durP1;ratioP1;P1;durP2;ratioP2;P2;SDS_P1;SDS_P2;PMS_P1;PMS_P2;Temp;Humidity;BMP_temperature;BMP_pressure;BME280_temperature;BME280_humidity;BME280_pressure;Samples;Min_cycle;Max_cycle;Signal;HPM_P1;HPM_P2
2021/11/16 00:01:21;;;;;;;46.63;26.80;;;;;;;8.54;62.47;101381.09;4343552;32;34309;-89
2021/11/16 00:03:51;;;;;;;43.85;26.70;;;;;;;8.79;60.94;101380.28;4346212;32;34106;-89
2021/11/16 00:06:20;;;;;;;44.67;26.98;;;;;;;8.75;60.62;101375.94;4337232;32;293876;-87
2021/11/16 00:08:48;;;;;;;43.00;27.20;;;;;;;8.74;60.39;101376.81;4334009;32;34147;-88
2021/11/16 00:11:17;;;;;;;46.95;27.70;;;;;;;8.42;61.77;101379.28;4347564;32;32799;-88
2021/11/16 00:13:45;;;;;;;49.38;28.87;;;;;;;8.63;60.48;101376.78;4336496;32;33292;-89
2021/11/16 00:16:13;;;;;;;46.10;28.10;;;;;;;8.39;60.93;101376.63;4349062;32;32893;-89
2021/11/16 00:18:42;;;;;;;45.90;27.42;;;;;;;8.15;62.14;101383.44;4340974;33;33882;-88
2021/11/16 00:21:13;;;;;;;45.42;26.50;;;;;;;8.38;61.33;101375.78;4345903;33;34505;-88
2021/11/16 00:23:42;;;;;;;45.63;26.30;;;;;;;8.38;60.26;101364.53;4343660;33;34868;-87
2021/11/16 00:26:12;;;;;;;43.13;25.10;;;;;;;8.38;59.45;101374.94;4343556;33;34073;-88
2021/11/16 00:28:40;;;;;;;41.50;26.00;;;;;;;8.06;59.28;101375.59;4341924;32;35401;-88
2021/11/16 00:31:09;;;;;;;39.90;25.88;;;;;;;8.15;59.06;101375.66;4342468;32;34298;-88
2021/11/16 00:33:37;;;;;;;51.33;27.92;;;;;;;7.95;59.70;101372.94;4331501;33;34388;-88
2021/11/16 00:36:05;;;;;;;44.17;25.33;;;;;;;8.01;58.93;101381.63;4331751;33;34286;-89
2021/11/16 00:38:34;;;;;;;45.95;27.48;;;;;;;7.81;59.32;101376.31;4345990;33;34486;-87
2021/11/16 00:41:03;;;;;;;42.10;25.83;;;;;;;7.88;59.40;101368.59;4357003;33;33213;-87
2021/11/16 00:43:33;;;;;;;49.25;26.25;;;;;;;7.95;58.96;101375.53;4334304;33;34651;-88
2021/11/16 00:46:01;;;;;;;52.75;30.40;;;;;;;7.78;59.71;101373.72;4331483;33;34440;-88
2021/11/16 00:48:29;;;;;;;49.03;29.08;;;;;;;7.95;58.67;101373.84;4343371;33;33654;-88
2021/11/16 00:51:02;;;;;;;47.38;28.50;;;;;;;7.61;59.94;101381.38;4330641;33;34441;-88
2021/11/16 00:53:34;;;;;;;46.70;28.80;;;;;;;7.67;59.47;101380.56;4331644;33;32906;-89
2021/11/16 00:56:04;;;;;;;48.00;27.00;;;;;;;7.34;60.55;101380.31;4330813;32;34463;-88
2021/11/16 00:58:33;;;;;;;;;;;;;;;7.26;60.26;101379.37;4331846;33;33876;-87
2021/11/16 01:01:02;;;;;;;47.78;25.92;;;;;;;7.56;59.51;101380.47;4331706;33;33777;-88
2021/11/16 01:03:31;;;;;;;46.15;27.13;;;;;;;7.52;59.69;101379.59;4331584;33;33542;-88
2021/11/16 01:06:00;;;;;;;51.72;28.15;;;;;;;7.34;60.18;101375.13;4331816;33;32838;-88
2021/11/16 01:08:28;;;;;;;44.75;28.30;;;;;;;7.49;59.73;101386.47;4343435;33;33342;-88
2021/11/16 01:10:57;;;;;;;47.60;26.02;;;;;;;6.90;61.94;101388.53;4343431;33;34067;-88
2021/11/16 01:13:27;;;;;;;50.08;29.23;;;;;;;7.23;60.85;101389.69;4330748;33;33797;-87
2021/11/16 01:15:55;;;;;;;45.42;27.87;;;;;;;6.84;61.95;101385.87;4356203;32;33310;-89
2021/11/16 01:18:26;;;;;;;44.58;26.98;;;;;;;6.83;62.03;101392.78;4358301;32;33789;-88
2021/11/16 01:20:55;;;;;;;45.42;26.33;;;;;;;6.89;61.46;101391.97;4358445;32;34915;-89
2021/11/16 01:23:24;;;;;;;42.80;25.40;;;;;;;7.23;60.16;101397.47;4345331;32;32925;-87
2021/11/16 01:25:52;;;;;;;44.40;27.52;;;;;;;6.94;61.04;101398.06;4345777;32;33522;-88
2021/11/16 01:28:26;;;;;;;40.83;26.55;;;;;;;7.18;60.35;101397.44;4357746;32;33301;-86
2021/11/16 01:30:57;;;;;;;41.97;26.20;;;;;;;7.25;60.01;101397.50;4358184;32;33990;-87
2021/11/16 01:33:41;;;;;;;42.45;25.00;;;;;;;7.05;60.66;101399.87;4357734;32;33952;-87
2021/11/16 01:36:13;;;;;;;42.42;25.15;;;;;;;7.41;59.12;101401.12;4357758;32;33680;-88
2021/11/16 01:38:43;;;;;;;45.75;25.90;;;;;;;7.42;58.76;101398.53;4345305;32;35086;-87
2021/11/16 01:41:12;;;;;;;42.00;25.40;;;;;;;7.47;58.87;101398.56;4357879;32;33385;-87
2021/11/16 01:43:41;;;;;;;42.80;24.15;;;;;;;7.46;58.83;101399.41;4345650;32;32732;-88
2021/11/16 01:46:13;;;;;;;43.30;25.67;;;;;;;7.31;59.04;101403.63;4357753;32;33437;-89
2021/11/16 01:48:46;;;;;;;41.53;26.87;;;;;;;7.27;59.64;101400.97;4358258;32;34341;-87
2021/11/16 01:51:16;;;;;;;40.30;24.87;;;;;;;7.46;59.82;101395.09;4357466;32;32693;-87
2021/11/16 01:53:44;;;;;;;45.95;26.60;;;;;;;7.47;60.00;101394.25;4345578;32;33284;-88
2021/11/16 01:56:12;;;;;;;43.47;27.67;;;;;;;7.12;61.82;101399.09;4357431;32;33348;-87
2021/11/16 01:58:40;;;;;;;45.25;27.33;;;;;;;7.61;61.79;101403.88;4357220;32;34438;-88
2021/11/16 02:01:08;;;;;;;43.92;29.02;;;;;;;7.87;62.11;101398.88;4358225;32;33658;-88
2021/11/16 02:03:36;;;;;;;48.25;28.52;;;;;;;7.82;62.73;101392.78;4332909;32;34177;-88
2021/11/16 02:06:27;;;;;;;46.70;27.98;;;;;;;7.96;62.76;101387.66;4357823;32;33601;-88
2021/11/16 02:08:56;;;;;;;48.20;27.98;;;;;;;7.75;64.00;101384.09;4357530;32;33833;-87
2021/11/16 02:11:25;;;;;;;44.30;27.20;;;;;;;8.30;62.25;101380.09;4358026;32;33137;-88
2021/11/16 02:13:53;;;;;;;45.70;29.67;;;;;;;8.06;62.88;101379.09;4356963;32;32875;-88
2021/11/16 02:16:22;;;;;;;48.47;27.73;;;;;;;8.32;63.08;101374.03;4330336;33;33569;-89
2021/11/16 02:18:50;;;;;;;40.88;25.67;;;;;;;8.49;63.20;101375.84;4318379;33;32650;-87
2021/11/16 02:21:19;;;;;;;52.05;29.25;;;;;;;8.53;62.55;101385.38;4330392;33;33169;-88
2021/11/16 02:23:49;;;;;;;50.05;30.45;;;;;;;8.54;64.41;101378.47;4330608;33;33179;-88
2021/11/16 02:26:17;;;;;;;48.42;29.65;;;;;;;8.63;64.74;101376.78;4330333;33;34777;-89
2021/11/16 02:28:46;;;;;;;54.00;30.90;;;;;;;8.85;64.40;101376.81;4329946;33;33410;-88
2021/11/16 02:31:16;;;;;;;50.05;31.40;;;;;;;8.88;64.67;101370.78;4328825;33;34361;-88
2021/11/16 02:33:45;;;;;;;56.88;32.42;;;;;;;8.63;66.79;101381.12;4330508;33;33712;-91
2021/11/16 02:36:15;;;;;;;54.70;31.65;;;;;;;9.00;65.91;101375.97;4317780;33;34357;-88
2021/11/16 02:38:43;;;;;;;51.85;31.00;;;;;;;9.04;65.71;101375.16;4330391;32;34536;-89
2021/11/16 02:41:12;;;;;;;50.05;31.02;;;;;;;8.95;66.21;101372.53;4329716;32;32554;-89
2021/11/16 02:43:41;;;;;;;54.10;31.77;;;;;;;9.21;65.70;101372.53;4330813;33;33802;-89
2021/11/16 02:46:11;;;;;;;52.67;32.10;;;;;;;9.18;65.73;101370.81;4318369;33;33909;-89
2021/11/16 02:48:40;;;;;;;47.85;30.67;;;;;;;9.37;65.20;101373.41;4330277;33;34073;-86
2021/11/16 02:51:11;;;;;;;52.70;30.62;;;;;;;9.34;65.19;101379.50;4330523;33;34640;-89
2021/11/16 02:53:41;;;;;;;51.65;31.12;;;;;;;9.39;65.14;101371.69;4330315;33;33331;-89
2021/11/16 02:56:09;;;;;;;48.87;31.45;;;;;;;9.52;64.67;101364.78;4330123;33;33555;-88
2021/11/16 02:58:37;;;;;;;51.10;29.92;;;;;;;9.52;64.56;101365.63;4342335;33;33117;-88
2021/11/16 03:01:10;;;;;;;48.97;30.17;;;;;;;9.39;64.90;101366.50;4342275;33;34149;-90
2021/11/16 03:03:39;;;;;;;49.20;30.58;;;;;;;9.44;64.74;101361.28;4330107;33;34200;-89
2021/11/16 03:06:08;;;;;;;51.25;30.98;;;;;;;9.33;65.26;101343.97;4330580;33;36196;-89
2021/11/16 03:08:37;;;;;;;52.35;29.90;;;;;;;9.74;64.03;101355.19;4318356;33;33493;-89
2021/11/16 03:11:08;;;;;;;47.72;30.60;;;;;;;9.75;63.71;101345.66;4342039;33;33997;-89
2021/11/16 03:13:38;;;;;;;48.72;30.95;;;;;;;9.81;63.63;101348.22;4329992;33;33994;-88
2021/11/16 03:16:17;;;;;;;48.05;29.05;;;;;;;9.71;63.81;101352.59;4331709;32;34168;-89
2021/11/16 03:18:47;;;;;;;48.78;29.60;;;;;;;9.66;64.13;101356.94;4344492;32;33386;-89
2021/11/16 03:21:18;;;;;;;46.97;28.50;;;;;;;9.77;63.66;101357.81;4344595;32;33190;-88
2021/11/16 03:23:49;;;;;;;46.35;28.08;;;;;;;9.77;63.41;101362.13;4344545;32;33014;-88
2021/11/16 03:26:19;;;;;;;46.78;29.17;;;;;;;9.73;63.40;101363.00;4357543;32;33525;-89
2021/11/16 03:28:51;;;;;;;51.85;29.75;;;;;;;9.76;63.18;101358.66;4365393;32;33972;-86
2021/11/16 03:33:57;;;;;;;47.75;27.67;;;;;;;10.01;62.15;101358.59;4357671;32;33379;-90
2021/11/16 03:36:25;;;;;;;43.42;27.40;;;;;;;10.14;61.63;101351.63;4344990;32;34013;-90
2021/11/16 03:38:54;;;;;;;42.20;26.60;;;;;;;9.84;62.00;101356.06;4358551;32;35255;-87
2021/11/16 03:41:23;;;;;;;46.47;26.65;;;;;;;9.92;61.67;101350.81;4358784;32;33075;-88
2021/11/16 03:43:52;;;;;;;42.55;27.05;;;;;;;9.72;62.25;101353.44;4346392;32;34248;-87
2021/11/16 03:46:21;;;;;;;42.95;26.77;;;;;;;9.58;62.40;101346.53;4358740;32;34107;-88
2021/11/16 03:48:49;;;;;;;42.88;28.23;;;;;;;9.67;62.32;101349.13;4358966;32;33485;-89
2021/11/16 03:51:18;;;;;;;43.42;28.05;;;;;;;9.87;61.43;101353.44;4346619;32;33335;-89
2021/11/16 03:53:46;;;;;;;46.75;28.65;;;;;;;9.68;61.93;101345.66;4358779;32;34075;-88
2021/11/16 03:56:16;;;;;;;43.35;27.23;;;;;;;9.49;62.30;101337.00;4346193;32;33576;-87
2021/11/16 03:58:46;;;;;;;45.47;28.45;;;;;;;9.48;62.17;101342.19;4345793;32;33726;-88
2021/11/16 04:01:16;;;;;;;47.92;28.33;;;;;;;9.28;62.64;101337.00;4346717;32;33871;-89
2021/11/16 04:03:46;;;;;;;40.53;26.57;;;;;;;9.29;62.59;101341.34;4345652;32;34835;-88
2021/11/16 04:06:16;;;;;;;44.65;27.67;;;;;;;9.54;61.67;101337.00;4346033;32;35224;-89
2021/11/16 04:08:43;;;;;;;44.80;28.05;;;;;;;9.36;61.97;101335.28;4334209;32;33445;-89
2021/11/16 04:11:12;;;;;;;48.60;26.83;;;;;;;9.12;62.21;101338.72;4346149;32;32666;-88
2021/11/16 04:13:40;;;;;;;48.63;28.08;;;;;;;9.32;61.74;101339.63;4347181;32;33905;-87
2021/11/16 04:16:08;;;;;;;45.28;26.62;;;;;;;8.89;63.01;101331.78;4343529;32;33100;-89
2021/11/16 04:18:36;;;;;;;43.47;27.02;;;;;;;9.28;61.77;101327.47;4343812;33;32897;-88
2021/11/16 04:21:04;;;;;;;43.03;26.27;;;;;;;8.89;62.47;101330.94;4343446;33;33756;-89
2021/11/16 04:23:33;;;;;;;44.42;26.73;;;;;;;9.26;61.03;101326.59;4331712;33;34285;-89
2021/11/16 04:26:02;;;;;;;44.25;27.48;;;;;;;9.10;61.24;101332.69;4332104;33;34480;-88
2021/11/16 04:28:30;;;;;;;44.88;27.35;;;;;;;8.54;63.08;101329.97;4331170;33;34040;-88
2021/11/16 04:30:59;;;;;;;46.80;27.30;;;;;;;9.02;61.52;101336.13;4343719;33;33881;-88
2021/11/16 04:33:28;;;;;;;48.28;27.85;;;;;;;8.74;62.21;101327.44;4331555;33;33292;-89
2021/11/16 04:35:56;;;;;;;44.47;27.08;;;;;;;8.86;61.67;101334.38;4331155;33;34402;-88
2021/11/16 04:38:24;;;;;;;46.83;27.20;;;;;;;8.94;61.14;101324.84;4331289;33;33429;-89
2021/11/16 04:40:56;;;;;;;50.78;28.58;;;;;;;8.89;61.31;101320.53;4318851;33;33224;-89
2021/11/16 04:43:27;;;;;;;43.80;26.65;;;;;;;9.05;61.01;101326.59;4329797;33;33115;-88
2021/11/16 04:46:02;;;;;;;46.58;27.23;;;;;;;9.18;60.68;101326.59;4343391;33;34627;-88
2021/11/16 04:54:08;;;;;;;40.72;25.65;;;;;;;8.98;61.89;101328.34;4353465;32;34871;-87
2021/11/16 05:04:56;;;;;;;42.30;24.52;;;;;;;8.85;60.59;101330.03;4337318;32;33775;-88
2021/11/16 05:07:31;;;;;;;42.08;24.85;;;;;;;8.97;59.70;101324.84;4358971;32;33139;-88
2021/11/16 05:10:00;;;;;;;46.35;27.90;;;;;;;8.81;60.09;101323.97;4359329;32;35150;-87
2021/11/16 05:12:30;;;;;;;46.42;26.87;;;;;;;8.73;60.96;101335.22;4346913;32;34191;-88
2021/11/16 05:15:01;;;;;;;43.45;26.95;;;;;;;9.03;60.23;101335.25;4326679;33;32775;-90
2021/11/16 05:17:29;;;;;;;;;;;;;;;8.93;60.95;101338.72;4331741;33;33564;-89
2021/11/16 05:19:56;;;;;;;48.47;28.65;;;;;;;8.84;61.75;101341.28;4331350;33;33348;-87
2021/11/16 05:22:24;;;;;;;55.75;33.05;;;;;;;8.75;61.96;101342.16;4331717;33;34213;-89
2021/11/16 05:24:53;;;;;;;51.28;31.55;;;;;;;9.02;61.24;101343.91;4343906;33;34443;-87
2021/11/16 05:27:20;;;;;;;50.17;30.92;;;;;;;8.93;61.07;101348.25;4319409;33;33537;-88
2021/11/16 05:29:48;;;;;;;48.13;28.23;;;;;;;8.61;62.29;101344.72;4331439;33;33482;-89
2021/11/16 05:32:17;;;;;;;48.72;28.92;;;;;;;8.59;62.37;101351.66;4329548;32;33534;-89
2021/11/16 05:34:46;;;;;;;49.97;28.25;;;;;;;8.84;61.80;101342.19;4331134;33;34041;-88
2021/11/16 05:37:14;;;;;;;45.28;26.62;;;;;;;8.81;62.31;101338.69;4343499;33;33175;-89
2021/11/16 05:39:42;;;;;;;43.90;27.73;;;;;;;8.62;62.65;101340.41;4343705;33;33819;-88
2021/11/16 05:42:10;;;;;;;46.35;27.77;;;;;;;9.07;61.32;101346.53;4343702;33;33529;-89
2021/11/16 05:44:38;;;;;;;49.33;27.62;;;;;;;8.95;61.60;101338.75;4331689;33;33187;-88
2021/11/16 05:47:07;;;;;;;43.58;26.50;;;;;;;9.19;60.85;101341.34;4319404;33;33347;-89
2021/11/16 05:49:35;;;;;;;44.63;26.35;;;;;;;9.22;60.72;101343.06;4331624;33;33136;-88
2021/11/16 05:52:03;;;;;;;49.85;28.35;;;;;;;9.09;60.94;101355.19;4343409;33;33217;-86
2021/11/16 05:54:34;;;;;;;42.15;26.35;;;;;;;8.75;62.14;101349.06;4331497;33;33083;-86
2021/11/16 05:57:04;;;;;;;41.17;26.52;;;;;;;9.18;60.96;101355.22;4331638;33;34714;-85
2021/11/16 05:59:35;;;;;;;42.65;28.48;;;;;;;9.11;61.22;101352.63;4331182;33;34364;-85
2021/11/16 06:02:06;;;;;;;45.03;28.00;;;;;;;9.20;60.91;101350.03;4331571;33;33878;-85
2021/11/16 06:04:36;;;;;;;44.42;27.42;;;;;;;9.19;61.11;101351.75;4331576;33;33752;-85
2021/11/16 06:07:07;;;;;;;42.22;25.98;;;;;;;9.35;60.84;101352.63;4333455;33;33070;-85
2021/11/16 06:09:35;;;;;;;47.97;26.60;;;;;;;9.24;61.06;101354.38;4331586;33;33655;-85
2021/11/16 06:12:04;;;;;;;43.03;27.30;;;;;;;9.44;60.72;101361.28;4343361;33;33952;-85
2021/11/16 06:14:32;;;;;;;47.65;27.58;;;;;;;9.48;60.71;101363.91;4335984;32;32662;-86
2021/11/16 06:17:00;;;;;;;42.10;25.62;;;;;;;9.48;60.62;101365.63;4369972;32;33981;-85
2021/11/16 06:19:34;;;;;;;43.25;25.88;;;;;;;9.61;60.25;101363.88;4368484;32;34236;-86
2021/11/16 06:22:10;;;;;;;42.97;25.85;;;;;;;9.31;60.99;101376.91;4359421;32;33454;-86
2021/11/16 06:24:38;;;;;;;45.22;24.95;;;;;;;9.39;60.94;101366.50;4346729;32;34378;-85
2021/11/16 06:27:07;;;;;;;45.40;26.48;;;;;;;9.46;60.62;101375.16;4346866;32;33265;-85
2021/11/16 06:29:36;;;;;;;45.90;26.42;;;;;;;9.18;61.59;101380.34;4359560;32;33323;-86
2021/11/16 06:32:06;;;;;;;43.92;25.75;;;;;;;9.40;61.00;101377.75;4345775;32;33847;-85
2021/11/16 06:34:35;;;;;;;41.58;24.15;;;;;;;9.51;60.42;101382.09;4358759;32;33863;-86
2021/11/16 06:37:05;;;;;;;44.75;27.70;;;;;;;9.58;60.16;101382.97;4358255;32;33830;-86
2021/11/16 06:39:33;;;;;;;43.50;27.77;;;;;;;9.68;59.95;101384.69;4359683;32;33515;-85
2021/11/16 06:42:02;;;;;;;53.22;27.08;;;;;;;9.72;59.90;101382.97;4358250;32;34107;-85
2021/11/16 06:44:30;;;;;;;42.15;26.10;;;;;;;9.82;59.85;101381.22;4346420;32;34303;-86
2021/11/16 06:46:58;;;;;;;41.88;26.23;;;;;;;10.09;59.08;101388.09;4345807;32;34781;-84
2021/11/16 06:49:26;;;;;;;41.00;25.88;;;;;;;9.97;59.42;101383.78;4346369;32;33771;-84
2021/11/16 06:51:57;;;;;;;43.80;25.95;;;;;;;10.01;59.37;101380.31;4343426;33;32980;-86
2021/11/16 06:54:26;;;;;;;54.72;34.03;;;;;;;10.32;58.70;101375.00;4343626;33;33799;-86
2021/11/16 06:56:55;;;;;;;45.55;28.95;;;;;;;10.26;58.82;101372.41;4331642;33;34114;-85
2021/11/16 06:59:26;;;;;;;46.30;27.95;;;;;;;10.24;59.08;101381.97;4331343;33;34724;-86
2021/11/16 07:02:02;;;;;;;48.75;27.40;;;;;;;10.15;59.10;101377.66;4319201;33;34342;-87
2021/11/16 07:04:41;;;;;;;47.35;27.98;;;;;;;10.27;58.72;101379.34;4331370;33;32815;-85
2021/11/16 07:07:14;;;;;;;43.58;27.25;;;;;;;10.45;58.05;101375.84;4333423;33;34160;-83
2021/11/16 07:09:43;;;;;;;46.63;27.73;;;;;;;10.38;58.21;101370.66;4343211;33;33335;-87
2021/11/16 07:12:14;;;;;;;48.75;27.98;;;;;;;10.46;58.23;101369.78;4341547;32;32199;-86
2021/11/16 07:14:42;;;;;;;46.42;28.67;;;;;;;10.21;59.81;101376.78;4335263;32;33068;-89
2021/11/16 07:17:14;;;;;;;52.20;30.25;;;;;;;10.38;59.07;101375.87;4335242;33;33582;-86
2021/11/16 07:19:49;;;;;;;47.92;29.67;;;;;;;10.25;59.62;101375.03;4335595;33;33059;-86
2021/11/16 07:22:23;;;;;;;50.53;27.98;;;;;;;10.34;59.13;101367.16;4335712;33;33012;-88
2021/11/16 07:24:53;;;;;;;45.85;29.23;;;;;;;10.64;57.94;101363.59;4345474;33;34760;-87
2021/11/16 07:27:28;;;;;;;49.30;28.33;;;;;;;10.53;58.05;101368.00;4335457;33;34616;-84
2021/11/16 07:29:58;;;;;;;44.40;26.77;;;;;;;10.52;58.02;101363.66;4335412;33;33401;-85
2021/11/16 07:32:31;;;;;;;46.70;28.08;;;;;;;10.41;58.04;101378.47;4335429;33;34186;-85
2021/11/16 07:35:04;;;;;;;45.67;28.15;;;;;;;10.47;57.99;101373.25;4335627;33;33809;-85
2021/11/16 07:37:34;;;;;;;42.80;27.30;;;;;;;10.39;58.11;101377.62;4335610;33;33681;-87
2021/11/16 07:40:04;;;;;;;49.83;28.08;;;;;;;10.50;57.91;101383.63;4323267;33;33542;-85
2021/11/16 07:42:35;;;;;;;47.95;28.62;;;;;;;10.64;57.40;101380.97;4347442;33;33854;-85
2021/11/16 07:45:11;;;;;;;46.33;28.83;;;;;;;10.72;57.15;101383.56;4335380;33;33224;-85
2021/11/16 07:47:52;;;;;;;47.85;28.92;;;;;;;10.78;57.30;101386.13;4347702;33;34173;-86
2021/11/16 07:50:33;;;;;;;45.10;26.75;;;;;;;10.94;56.88;101389.50;4335240;33;32827;-86
2021/11/16 07:53:31;;;;;;;46.72;27.37;;;;;;;10.84;57.23;101399.13;4345462;33;34192;-86
2021/11/16 07:56:05;;;;;;;40.10;27.15;;;;;;;10.76;57.02;101403.53;4334919;32;34108;-86
2021/11/16 07:58:36;;;;;;;43.17;26.60;;;;;;;10.90;56.48;101411.25;4335334;33;33332;-86
2021/11/16 08:01:14;;;;;;;37.67;25.52;;;;;;;10.92;56.17;101402.56;4335183;33;34107;-88
2021/11/16 08:03:49;;;;;;;46.20;27.00;;;;;;;10.90;56.24;101404.28;4335796;33;33498;-88
2021/11/16 08:11:32;;;;;;;44.25;28.70;;;;;;;10.78;56.43;101406.97;4348152;32;34632;-88
2021/11/16 08:14:12;;;;;;;43.35;26.65;;;;;;;10.81;56.31;101413.03;4348530;32;34281;-88
2021/11/16 08:16:57;;;;;;;48.33;27.80;;;;;;;10.89;55.99;101405.19;4346801;32;33236;-88
2021/11/16 08:19:31;;;;;;;48.30;27.13;;;;;;;10.92;55.83;101406.91;4347353;33;33240;-87
2021/11/16 08:22:07;;;;;;;43.70;26.48;;;;;;;11.06;55.36;101409.41;4348070;32;34794;-87
2021/11/16 08:24:44;;;;;;;45.33;27.40;;;;;;;11.22;55.01;101411.06;4333981;33;34099;-87
2021/11/16 08:27:19;;;;;;;45.88;28.33;;;;;;;10.94;55.62;101398.22;4335126;33;34226;-88
2021/11/16 08:30:03;;;;;;;46.60;28.45;;;;;;;11.10;55.36;101404.19;4354458;32;34660;-88
2021/11/16 08:32:35;;;;;;;46.90;29.05;;;;;;;11.16;55.21;101403.28;4348333;33;34055;-89
2021/11/16 08:35:09;;;;;;;50.58;30.15;;;;;;;11.15;55.14;101405.00;4347432;33;33850;-87
2021/11/16 08:37:43;;;;;;;49.03;29.63;;;;;;;11.06;55.27;101410.28;4334432;33;33831;-87
2021/11/16 08:40:15;;;;;;;51.50;30.00;;;;;;;11.18;55.26;101406.72;4332597;33;34066;-88
2021/11/16 08:42:51;;;;;;;49.53;29.75;;;;;;;11.11;55.26;101407.66;4332716;33;34680;-89
2021/11/16 08:45:25;;;;;;;51.97;31.12;;;;;;;11.16;55.14;101395.44;4332786;33;34024;-88
2021/11/16 08:47:56;;;;;;;46.88;30.08;;;;;;;11.09;55.29;101404.19;4320739;33;35132;-87
2021/11/16 08:50:29;;;;;;;46.47;31.23;;;;;;;11.24;55.03;101406.69;4345162;33;33579;-87
2021/11/16 08:52:59;;;;;;;46.80;28.62;;;;;;;11.19;55.07;101395.41;4332898;33;33034;-86
2021/11/16 08:55:33;;;;;;;44.78;29.48;;;;;;;10.86;56.16;101395.63;4330518;33;33386;-88
2021/11/16 08:58:08;;;;;;;48.75;30.25;;;;;;;11.14;55.48;101402.41;4329844;33;34194;-87
2021/11/16 09:00:40;;;;;;;59.17;35.88;;;;;;;11.31;54.92;101402.28;4330288;33;34299;-88
2021/11/16 09:03:12;;;;;;;50.35;31.27;;;;;;;11.37;54.89;101402.25;4330083;33;34154;-89
2021/11/16 09:05:45;;;;;;;51.13;31.40;;;;;;;11.23;55.37;101406.72;4330053;33;33388;-88
2021/11/16 09:08:31;;;;;;;50.40;32.25;;;;;;;11.58;54.44;101396.00;4329965;33;33704;-88
2021/11/16 09:11:17;;;;;;;50.80;31.25;;;;;;;11.46;54.52;101390.88;4330212;33;33570;-87
2021/11/16 09:13:52;;;;;;;44.88;30.42;;;;;;;11.76;53.50;101400.19;4345078;33;34458;-88
2021/11/16 09:16:32;;;;;;;47.03;30.75;;;;;;;11.41;54.57;101392.63;4335655;33;33094;-88
2021/11/16 09:19:00;;;;;;;50.12;31.48;;;;;;;11.58;54.37;101395.12;4357961;33;32948;-86
2021/11/16 09:21:38;;;;;;;52.00;31.85;;;;;;;11.84;53.44;101389.66;4351691;33;33272;-86
2021/11/16 09:24:10;;;;;;;47.90;32.25;;;;;;;11.69;53.76;101390.69;4334278;33;34090;-88
2021/11/16 09:29:21;;;;;;;51.55;31.52;;;;;;;11.59;54.31;101381.19;4345539;33;33491;-86
2021/11/16 09:31:53;;;;;;;51.72;33.25;;;;;;;11.41;54.60;101376.97;4345412;33;32969;-87
2021/11/16 09:34:21;;;;;;;;;;;;;;;11.39;54.75;101376.16;4346548;32;35114;-86
2021/11/16 09:36:57;;;;;;;50.72;29.60;;;;;;;11.67;53.96;101376.75;4361764;32;32329;-87
2021/11/16 09:39:49;;;;;;;51.55;32.35;;;;;;;11.58;54.16;101376.84;4336192;32;33118;-87
2021/11/16 09:42:25;;;;;;;54.05;32.13;;;;;;;11.75;53.79;101384.53;4347646;32;33591;-86
2021/11/16 09:45:03;;;;;;;50.45;32.42;;;;;;;11.52;54.46;101369.94;4353231;32;32881;-87
2021/11/16 09:47:37;;;;;;;51.53;32.08;;;;;;;11.54;54.32;101368.19;4349037;32;32626;-87
2021/11/16 09:50:13;;;;;;;55.85;34.38;;;;;;;11.49;54.58;101365.63;4347935;32;34321;-86
2021/11/16 09:52:52;;;;;;;55.17;34.63;;;;;;;11.47;54.47;101364.78;4360370;32;32727;-87
2021/11/16 09:55:22;;;;;;;56.88;34.17;;;;;;;11.42;54.89;101361.34;4347740;32;34241;-88
2021/11/16 09:58:04;;;;;;;52.20;33.27;;;;;;;11.49;54.47;101354.31;4359858;32;34245;-88
2021/11/16 10:00:42;;;;;;;56.20;32.25;;;;;;;11.78;53.64;101347.94;4347565;32;32521;-87
2021/11/16 10:03:15;;;;;;;52.58;33.47;;;;;;;11.98;53.31;101348.63;4347580;32;34066;-87
2021/11/16 10:05:51;;;;;;;54.55;35.80;;;;;;;12.22;52.75;101344.00;4346609;32;34116;-87
2021/11/16 10:08:21;;;;;;;54.72;34.83;;;;;;;12.10;52.55;101338.91;4347444;32;34661;-88
2021/11/16 10:10:52;;;;;;;48.47;32.83;;;;;;;12.01;52.79;101338.13;4347053;32;34109;-87
2021/11/16 10:13:24;;;;;;;51.65;33.47;;;;;;;12.44;51.96;101338.50;4358922;32;33345;-88
2021/11/16 10:15:53;;;;;;;;;;;;;;;12.39;52.02;101329.84;4346862;32;33645;-87
2021/11/16 10:18:24;;;;;;;55.50;33.45;;;;;;;12.66;51.38;101334.72;4333948;32;32951;-87
2021/11/16 10:20:52;;;;;;;54.77;35.10;;;;;;;12.60;51.50;101329.56;4358473;32;34114;-86
2021/11/16 10:23:35;;;;;;;59.47;36.28;;;;;;;12.62;51.56;101324.31;4355012;32;34220;-86
2021/11/16 10:26:06;;;;;;;65.45;35.67;;;;;;;12.77;51.47;101324.09;4334366;33;34947;-88
2021/11/16 10:28:36;;;;;;;53.60;34.03;;;;;;;13.01;50.90;101317.59;4346862;33;33957;-88
2021/11/16 10:31:05;;;;;;;49.53;31.60;;;;;;;13.06;50.44;101319.31;4333256;33;34839;-88
2021/11/16 10:33:38;;;;;;;53.15;33.50;;;;;;;13.43;48.78;101310.84;4334476;33;32694;-88
2021/11/16 10:36:14;;;;;;;48.05;30.77;;;;;;;13.38;49.07;101312.72;4343670;33;33162;-89
2021/11/16 10:38:45;;;;;;;47.15;29.00;;;;;;;13.64;47.75;101306.97;4345280;33;34209;-88
2021/11/16 10:41:22;;;;;;;48.87;30.55;;;;;;;13.89;47.33;101301.28;4345118;33;34944;-89
2021/11/16 10:43:53;;;;;;;46.15;31.23;;;;;;;13.88;46.94;101297.81;4344214;33;34030;-88
2021/11/16 10:46:28;;;;;;;48.13;31.60;;;;;;;14.07;46.64;101303.53;4345186;33;34323;-87
2021/11/16 10:48:59;;;;;;;50.12;32.80;;;;;;;14.29;46.05;101289.97;4335091;33;33417;-88
2021/11/16 10:51:34;;;;;;;51.80;33.22;;;;;;;13.93;46.75;101297.69;4335513;33;33362;-89
2021/11/16 10:54:03;;;;;;;46.88;31.37;;;;;;;13.97;47.05;101296.75;4332655;33;33871;-87
2021/11/16 10:56:35;;;;;;;47.83;32.47;;;;;;;13.91;47.00;101286.41;4331321;33;33880;-89
2021/11/16 10:59:14;;;;;;;50.35;33.65;;;;;;;14.45;45.67;101280.87;4346423;32;32818;-89
2021/11/16 11:01:53;;;;;;;46.50;31.23;;;;;;;14.50;45.65;101284.22;4336789;33;33755;-88
2021/11/16 11:04:28;;;;;;;43.92;30.85;;;;;;;14.21;45.88;101279.62;4319509;33;33333;-89
2021/11/16 11:07:10;;;;;;;48.80;33.38;;;;;;;14.72;44.37;101278.53;4320642;33;33816;-88
2021/11/16 11:09:39;;;;;;;51.95;33.85;;;;;;;14.60;44.81;101268.28;4332142;33;34040;-88
2021/11/16 11:12:29;;;;;;;49.25;32.70;;;;;;;14.70;45.04;101267.22;4331373;33;34204;-89
2021/11/16 11:14:57;;;;;;;46.37;32.72;;;;;;;15.12;44.17;101259.19;4331340;33;33592;-88
2021/11/16 11:17:38;;;;;;;46.13;30.30;;;;;;;14.90;44.00;101261.47;4334839;33;33786;-89
2021/11/16 11:20:09;;;;;;;46.97;29.27;;;;;;;14.78;43.90;101260.00;4334211;33;34543;-86
2021/11/16 11:22:41;;;;;;;41.80;29.08;;;;;;;15.03;43.58;101254.16;4316109;33;33976;-87
2021/11/16 11:25:53;;;;;;;47.85;31.95;;;;;;;15.03;43.51;101249.78;4341108;33;34897;-88
2021/11/16 11:28:08;;;;;;;47.05;32.60;;;;;;;14.77;44.29;101239.94;4329356;33;32951;-87
2021/11/16 11:30:39;;;;;;;43.50;29.77;;;;;;;15.04;43.59;101242.78;4356085;32;33116;-89
2021/11/16 11:33:08;;;;;;;44.00;30.85;;;;;;;15.36;42.80;101239.28;4346701;32;33274;-87
2021/11/16 11:35:35;;;;;;;46.60;30.10;;;;;;;15.46;42.67;101233.78;4345712;32;33736;-88
2021/11/16 11:38:11;;;;;;;41.92;27.77;;;;;;;15.70;41.62;101235.75;4345528;32;34856;-87
2021/11/16 11:40:40;;;;;;;33.08;22.62;;;;;;;15.86;40.87;101232.69;4343223;32;32905;-88
2021/11/16 11:43:23;;;;;;;34.85;22.42;;;;;;;15.53;40.57;101230.97;4330598;33;33567;-88
2021/11/16 11:45:52;;;;;;;35.72;21.50;;;;;;;15.77;39.83;101227.66;4331636;33;34106;-89
2021/11/16 11:48:22;;;;;;;30.20;20.88;;;;;;;15.67;39.97;101227.06;4330672;33;34548;-88
2021/11/16 11:50:56;;;;;;;34.78;22.67;;;;;;;16.06;38.98;101218.09;4331530;33;34884;-87
2021/11/16 11:53:30;;;;;;;41.90;25.08;;;;;;;16.10;39.03;101211.84;4330283;33;33426;-88
2021/11/16 11:56:13;;;;;;;41.58;24.67;;;;;;;16.15;39.20;101212.56;4318770;33;34375;-87
2021/11/16 11:58:44;;;;;;;40.92;27.35;;;;;;;16.34;38.67;101215.47;4319527;33;34368;-87